Time;durP1;ratioP1;P1;durP2;ratioP2;P2;SDS_P1;SDS_P2;PMS_P1;PMS_P2;Temp;Humidity;BMP_temperature;BMP_pressure;BME280_temperature;BME280_humidity;BME280_pressure;Samples;Min_cycle;Max_cycle;Signal;HPM_P1;HPM_P2
2023/01/10 00:01:26;;;;;;;25.05;4.38;;;3.90;99.90;;;;;;4977031;28;20064;-82
2023/01/10 00:03:52;;;;;;;16.40;4.20;;;3.90;99.90;;;;;;4991494;28;20483;-81
2023/01/10 00:06:18;;;;;;;28.55;4.97;;;3.80;99.90;;;;;;4969048;28;20134;-79
2023/01/10 00:08:43;;;;;;;26.02;4.70;;;3.80;99.90;;;;;;4970485;28;20100;-82
2023/01/10 00:13:54;;;;;;;25.45;4.40;;;3.90;99.90;;;;;;4987553;28;20163;-81
2023/01/10 00:16:20;;;;;;;23.45;3.97;;;4.00;99.90;;;;;;4976350;28;20054;-82
2023/01/10 00:18:46;;;;;;;20.73;4.35;;;4.00;99.90;;;;;;4981501;28;20377;-82
2023/01/10 00:21:13;;;;;;;17.27;3.78;;;3.90;99.90;;;;;;4983562;28;20044;-80
2023/01/10 00:23:40;;;;;;;26.33;5.32;;;4.00;99.90;;;;;;4980248;28;20432;-81
2023/01/10 00:26:05;;;;;;;28.67;4.93;;;4.00;99.90;;;;;;4989882;28;20506;-80
2023/01/10 00:28:34;;;;;;;27.08;4.50;;;4.00;99.90;;;;;;4973478;28;20053;-81
2023/01/10 00:31:05;;;;;;;25.42;4.38;;;4.10;99.90;;;;;;4976828;28;20084;-80
2023/01/10 00:33:35;;;;;;;24.38;4.82;;;4.20;99.90;;;;;;4976534;28;20041;-83
2023/01/10 00:36:05;;;;;;;24.17;5.20;;;4.20;99.90;;;;;;4978242;28;20093;-80
2023/01/10 00:38:32;;;;;;;29.48;4.55;;;4.30;99.90;;;;;;5004358;28;20077;-81
2023/01/10 00:40:58;;;;;;;23.27;4.57;;;4.30;99.90;;;;;;4993166;28;20050;-80
2023/01/10 00:46:09;;;;;;;24.75;4.75;;;4.40;99.90;;;;;;4972935;28;20052;-86
2023/01/10 00:48:35;;;;;;;31.35;4.75;;;4.30;99.90;;;;;;4990831;28;20184;-80
2023/01/10 00:51:02;;;;;;;26.50;4.70;;;4.30;99.90;;;;;;4978609;28;20057;-81
2023/01/10 00:53:27;;;;;;;25.40;5.00;;;4.30;99.90;;;;;;4991821;28;20042;-80
2023/01/10 00:55:54;;;;;;;26.65;4.07;;;4.30;99.90;;;;;;4978847;28;20113;-80
2023/01/10 00:58:20;;;;;;;25.10;4.30;;;4.30;99.90;;;;;;4983971;28;20536;-80
2023/01/10 01:00:48;;;;;;;31.85;6.10;;;4.40;99.90;;;;;;4978690;28;20049;-80
2023/01/10 01:03:15;;;;;;;22.98;4.35;;;4.50;99.90;;;;;;4987056;28;20473;-80
2023/01/10 01:05:43;;;;;;;26.70;3.75;;;4.50;99.90;;;;;;4993581;28;20472;-80
2023/01/10 01:08:11;;;;;;;24.05;3.78;;;4.60;99.90;;;;;;4988684;28;20440;-86
2023/01/10 01:10:36;;;;;;;28.00;4.95;;;4.60;99.90;;;;;;4981957;28;20050;-80
2023/01/10 01:13:17;;;;;;;24.73;4.38;;;4.70;99.90;;;;;;4978384;28;20116;-80
2023/01/10 01:15:43;;;;;;;21.38;3.53;;;4.80;99.90;;;;;;4977159;28;20484;-81
2023/01/10 01:18:11;;;;;;;24.30;3.90;;;4.80;99.90;;;;;;4982834;28;20504;-85
2023/01/10 01:20:38;;;;;;;27.63;5.28;;;4.70;99.90;;;;;;4959216;28;20042;-80
2023/01/10 01:23:04;;;;;;;21.17;4.18;;;4.80;99.90;;;;;;4956455;28;20045;-80
2023/01/10 01:25:29;;;;;;;27.67;4.53;;;4.80;99.90;;;;;;4975889;28;20042;-79
2023/01/10 01:27:55;;;;;;;28.65;3.85;;;4.90;99.90;;;;;;4959722;28;20042;-79
2023/01/10 01:30:21;;;;;;;18.70;3.75;;;5.00;99.90;;;;;;4967630;28;20060;-84
2023/01/10 01:32:46;;;;;;;22.63;4.13;;;4.90;99.90;;;;;;4966184;28;20042;-79
2023/01/10 01:35:14;;;;;;;25.35;3.85;;;5.10;99.90;;;;;;4994134;28;20057;-85
2023/01/10 01:37:40;;;;;;;26.58;4.28;;;5.10;99.90;;;;;;4967327;28;20046;-80
2023/01/10 01:40:09;;;;;;;25.98;5.15;;;5.00;99.90;;;;;;4998842;28;20180;-80
2023/01/10 01:42:34;;;;;;;27.10;3.80;;;5.00;99.90;;;;;;4975327;28;20069;-80
2023/01/10 01:45:22;;;;;;;21.65;3.72;;;5.00;99.90;;;;;;4998553;28;20046;-80
2023/01/10 01:48:00;;;;;;;20.38;3.22;;;4.90;99.90;;;;;;4994417;28;20053;-83
2023/01/10 01:50:52;;;;;;;27.15;4.25;;;4.80;99.90;;;;;;5011342;28;20086;-80
2023/01/10 01:53:33;;;;;;;19.83;3.67;;;4.80;99.90;;;;;;4995200;28;20407;-80
2023/01/10 01:56:02;;;;;;;19.92;3.40;;;4.70;99.90;;;;;;4973121;28;20437;-79
2023/01/10 01:58:45;;;;;;;21.10;3.10;;;4.60;99.90;;;;;;4987188;28;20054;-80
2023/01/10 02:01:13;;;;;;;29.10;4.70;;;4.60;99.90;;;;;;4979947;28;20042;-80
2023/01/10 02:03:42;;;;;;;15.63;3.13;;;4.60;99.90;;;;;;4994733;28;20078;-80
2023/01/10 02:06:08;;;;;;;26.67;4.13;;;4.50;99.90;;;;;;4994292;28;20415;-80
2023/01/10 02:08:35;;;;;;;17.95;3.88;;;4.50;99.90;;;;;;4971575;28;20102;-79
2023/01/10 02:11:10;;;;;;;16.10;2.88;;;4.40;99.90;;;;;;4975579;28;20050;-79
2023/01/10 02:13:41;;;;;;;25.83;4.05;;;4.50;99.90;;;;;;4994762;28;20480;-80
2023/01/10 02:16:07;;;;;;;30.42;3.78;;;4.50;99.90;;;;;;4977256;28;20045;-79
2023/01/10 02:18:34;;;;;;;17.70;3.22;;;4.30;99.90;;;;;;4986560;28;20697;-80
2023/01/10 02:21:15;;;;;;;26.13;4.40;;;4.30;99.90;;;;;;4967625;28;20038;-80
2023/01/10 02:24:11;;;;;;;19.70;3.63;;;4.40;99.90;;;;;;4969634;28;20057;-80
2023/01/10 02:27:09;;;;;;;20.50;4.45;;;4.50;99.90;;;;;;4989981;28;20047;-80
2023/01/10 02:30:01;;;;;;;24.25;3.38;;;4.60;99.90;;;;;;4983528;28;20058;-79
2023/01/10 02:32:35;;;;;;;21.42;3.40;;;4.70;99.90;;;;;;4994143;28;20100;-79
2023/01/10 02:35:15;;;;;;;24.92;3.63;;;4.60;99.90;;;;;;4995065;28;20042;-80
2023/01/10 02:37:47;;;;;;;27.73;4.40;;;4.60;99.90;;;;;;4972413;28;20276;-80
2023/01/10 02:40:35;;;;;;;21.40;3.97;;;4.60;99.90;;;;;;4976869;28;20088;-80
2023/01/10 02:43:21;;;;;;;24.23;3.50;;;4.50;99.90;;;;;;4982933;28;20113;-80
2023/01/10 02:46:07;;;;;;;32.63;5.50;;;4.50;99.90;;;;;;4994026;28;20050;-80
2023/01/10 02:48:33;;;;;;;21.05;3.50;;;4.40;99.90;;;;;;4992767;28;20042;-80
2023/01/10 02:51:23;;;;;;;17.55;3.15;;;4.40;99.90;;;;;;4961881;28;20053;-80
2023/01/10 02:54:18;;;;;;;22.45;3.75;;;4.40;99.90;;;;;;4971468;28;20047;-80
2023/01/10 02:56:50;;;;;;;21.65;3.10;;;4.50;99.90;;;;;;4976408;28;20519;-82
2023/01/10 02:59:34;;;;;;;17.83;3.38;;;4.60;99.90;;;;;;4958082;28;20049;-80
2023/01/10 03:02:43;;;;;;;22.17;3.35;;;4.80;99.90;;;;;;4955849;28;20149;-81
2023/01/10 03:05:28;;;;;;;28.55;3.95;;;4.90;99.90;;;;;;4970616;28;20053;-81
2023/01/10 03:08:24;;;;;;;21.98;3.95;;;4.90;99.90;;;;;;4959317;28;20077;-79
2023/01/10 03:11:01;;;;;;;23.58;3.72;;;4.90;99.90;;;;;;4973428;28;20122;-81
2023/01/10 03:13:40;;;;;;;26.67;4.18;;;5.00;99.90;;;;;;4966204;28;20097;-90
2023/01/10 03:16:09;;;;;;;21.50;3.50;;;5.00;99.90;;;;;;4974233;28;20042;-81
2023/01/10 03:18:59;;;;;;;17.35;3.20;;;4.90;99.90;;;;;;4974605;28;20407;-82
2023/01/10 03:21:27;;;;;;;25.88;5.45;;;4.90;99.90;;;;;;4968983;28;20064;-80
2023/01/10 03:23:58;;;;;;;25.10;4.00;;;4.90;99.90;;;;;;4968292;28;20101;-80
2023/01/10 03:26:51;;;;;;;23.17;4.30;;;4.90;99.90;;;;;;4974697;28;20054;-80
2023/01/10 03:29:57;;;;;;;27.98;4.07;;;4.90;99.90;;;;;;4975338;28;20898;-80
2023/01/10 03:32:27;;;;;;;22.00;3.60;;;4.90;99.90;;;;;;4941996;28;20066;-79
2023/01/10 03:34:54;;;;;;;29.40;4.20;;;4.80;99.90;;;;;;4975565;28;20058;-80
2023/01/10 03:37:34;;;;;;;20.27;3.78;;;4.80;99.90;;;;;;4960713;28;20050;-80
2023/01/10 03:40:11;;;;;;;27.65;4.28;;;4.90;99.90;;;;;;4984704;28;20046;-81
2023/01/10 03:46:00;;;;;;;15.63;3.47;;;5.00;99.90;;;;;;4977590;28;20137;-79
2023/01/10 03:48:31;;;;;;;18.20;3.35;;;5.00;99.90;;;;;;4963308;28;20572;-83
2023/01/10 03:50:59;;;;;;;22.75;3.70;;;5.10;99.90;;;;;;4976460;28;20093;-79
2023/01/10 03:53:25;;;;;;;24.13;4.85;;;5.10;99.90;;;;;;4987905;28;20057;-79
2023/01/10 03:55:51;;;;;;;24.60;5.43;;;5.00;99.90;;;;;;4980619;28;20054;-80
2023/01/10 03:58:20;;;;;;;27.83;5.32;;;5.10;99.90;;;;;;4981330;28;20097;-80
2023/01/10 04:00:47;;;;;;;24.40;4.70;;;5.20;99.90;;;;;;4975918;28;20048;-80
2023/01/10 04:03:12;;;;;;;23.20;3.85;;;5.20;99.90;;;;;;4989988;28;20509;-80
2023/01/10 04:05:38;;;;;;;34.72;4.20;;;5.10;99.90;;;;;;4973224;28;20125;-80
2023/01/10 04:08:04;;;;;;;23.38;4.30;;;5.10;99.90;;;;;;4968098;28;20112;-86
2023/01/10 04:10:30;;;;;;;21.50;4.13;;;5.10;99.90;;;;;;4977866;28;20129;-85
2023/01/10 04:13:02;;;;;;;29.73;5.32;;;5.20;99.90;;;;;;4976160;28;20042;-80
2023/01/10 04:15:28;;;;;;;33.60;4.25;;;5.20;99.90;;;;;;4994253;28;20128;-80
2023/01/10 04:17:55;;;;;;;25.33;4.13;;;5.20;99.90;;;;;;4971831;28;20141;-80
2023/01/10 04:20:21;;;;;;;25.30;4.57;;;5.20;99.90;;;;;;4963459;28;20628;-80
2023/01/10 04:22:48;;;;;;;22.73;5.40;;;5.20;99.90;;;;;;4991299;28;20073;-80
2023/01/10 04:25:15;;;;;;;29.67;4.47;;;5.10;99.90;;;;;;4995743;28;20116;-79
2023/01/10 04:27:40;;;;;;;21.80;4.45;;;5.00;99.90;;;;;;4995203;28;20145;-79
2023/01/10 04:30:07;;;;;;;27.92;4.90;;;4.90;99.90;;;;;;4962583;28;20193;-79
2023/01/10 04:32:33;;;;;;;31.73;5.07;;;4.90;99.90;;;;;;4994974;28;20491;-77
2023/01/10 04:34:59;;;;;;;23.63;3.92;;;5.00;99.90;;;;;;4978638;28;20050;-77
2023/01/10 04:37:24;;;;;;;21.10;4.53;;;5.10;99.90;;;;;;4994962;28;20134;-80
2023/01/10 04:39:50;;;;;;;20.35;4.32;;;5.10;99.90;;;;;;4974675;28;20085;-78
2023/01/10 04:42:16;;;;;;;14.80;4.03;;;5.10;99.90;;;;;;4960444;28;20042;-78
2023/01/10 04:44:42;;;;;;;25.45;4.95;;;5.10;99.90;;;;;;4959435;28;20408;-78
2023/01/10 04:47:08;;;;;;;15.98;4.78;;;5.00;99.90;;;;;;4974841;28;20046;-78
2023/01/10 04:49:33;;;;;;;26.30;4.47;;;5.00;99.90;;;;;;4972798;28;20446;-79
2023/01/10 04:51:59;;;;;;;20.58;4.93;;;5.00;99.90;;;;;;4977353;28;20037;-77
2023/01/10 04:54:25;;;;;;;17.70;4.63;;;5.10;99.90;;;;;;4975373;28;20054;-83
2023/01/10 04:56:51;;;;;;;22.08;5.55;;;5.20;99.90;;;;;;4977557;28;20522;-78
2023/01/10 04:59:16;;;;;;;25.92;5.47;;;5.20;99.90;;;;;;4980036;28;20184;-86
2023/01/10 05:01:42;;;;;;;27.95;6.07;;;5.20;99.90;;;;;;4950219;28;20042;-85
2023/01/10 05:04:08;;;;;;;22.85;5.40;;;5.30;99.90;;;;;;4975245;28;20074;-77
2023/01/10 05:06:35;;;;;;;26.10;5.85;;;5.30;99.90;;;;;;4977066;28;20046;-82
2023/01/10 05:09:01;;;;;;;22.10;5.28;;;5.30;99.90;;;;;;4974603;28;20045;-78
2023/01/10 05:11:27;;;;;;;31.27;6.90;;;5.20;99.90;;;;;;4992555;28;20124;-76
2023/01/10 05:13:53;;;;;;;32.05;6.50;;;5.30;99.90;;;;;;4977804;28;20188;-76
2023/01/10 05:16:21;;;;;;;25.58;6.55;;;5.20;99.90;;;;;;4994589;28;20050;-77
2023/01/10 05:18:50;;;;;;;36.40;6.65;;;5.20;99.90;;;;;;4993190;28;20056;-78
2023/01/10 05:21:19;;;;;;;28.20;6.28;;;5.20;99.90;;;;;;4956460;28;20458;-77
2023/01/10 05:23:44;;;;;;;27.30;6.57;;;5.40;99.90;;;;;;4967550;28;20136;-83
2023/01/10 05:26:15;;;;;;;33.15;6.13;;;5.50;99.90;;;;;;4958336;28;20042;-77
2023/01/10 05:28:42;;;;;;;29.48;7.25;;;5.50;99.90;;;;;;4981119;28;20408;-78
2023/01/10 05:31:10;;;;;;;33.17;6.07;;;5.50;99.90;;;;;;4991223;28;20042;-77
2023/01/10 05:33:36;;;;;;;35.45;6.00;;;5.50;99.90;;;;;;4993273;28;20046;-78
2023/01/10 05:36:03;;;;;;;34.65;6.40;;;5.50;99.90;;;;;;4955778;28;20046;-76
2023/01/10 05:38:29;;;;;;;29.60;5.25;;;5.60;99.90;;;;;;4986711;28;20052;-77
2023/01/10 05:40:56;;;;;;;30.83;5.25;;;5.60;99.90;;;;;;4976393;28;20107;-78
2023/01/10 05:43:26;;;;;;;26.73;6.35;;;5.60;99.90;;;;;;4988769;28;20404;-78
2023/01/10 05:45:52;;;;;;;33.78;5.30;;;5.60;99.90;;;;;;4975013;28;20399;-78
2023/01/10 05:48:18;;;;;;;35.35;5.00;;;5.60;99.90;;;;;;4975257;28;20045;-78
2023/01/10 05:50:44;;;;;;;26.25;4.97;;;5.60;99.90;;;;;;4986757;28;20053;-78
2023/01/10 05:53:13;;;;;;;37.55;6.25;;;5.70;99.90;;;;;;4988934;28;20042;-84
2023/01/10 05:55:39;;;;;;;24.13;4.80;;;5.60;99.90;;;;;;4974000;28;20146;-78
2023/01/10 05:58:05;;;;;;;27.15;5.18;;;5.70;99.90;;;;;;4992377;28;20082;-76
2023/01/10 06:00:31;;;;;;;40.20;5.40;;;5.70;99.90;;;;;;5009338;28;20124;-81
2023/01/10 06:02:56;;;;;;;28.42;5.22;;;5.70;99.90;;;;;;4986813;28;20042;-80
2023/01/10 06:05:23;;;;;;;35.78;5.20;;;5.70;99.90;;;;;;4953573;28;20074;-80
2023/01/10 06:07:49;;;;;;;27.38;4.95;;;5.60;99.90;;;;;;4974447;28;20049;-85
2023/01/10 06:10:16;;;;;;;31.75;5.70;;;5.60;99.90;;;;;;4978693;28;20042;-78
2023/01/10 06:12:42;;;;;;;36.92;5.53;;;5.60;99.90;;;;;;4954142;28;20133;-80
2023/01/10 06:15:09;;;;;;;35.85;6.45;;;5.60;99.90;;;;;;4983708;28;20046;-78
2023/01/10 06:17:34;;;;;;;40.85;7.47;;;5.60;99.90;;;;;;4969348;28;20056;-79
2023/01/10 06:20:00;;;;;;;32.38;6.35;;;5.60;99.90;;;;;;4968807;28;20038;-79
2023/01/10 06:22:27;;;;;;;43.50;7.47;;;5.60;99.90;;;;;;4971319;28;20093;-82
2023/01/10 06:24:54;;;;;;;32.75;5.18;;;5.60;99.90;;;;;;4992829;28;20054;-79
2023/01/10 06:27:20;;;;;;;32.58;6.07;;;5.60;99.90;;;;;;4986145;28;20555;-79
2023/01/10 06:29:46;;;;;;;31.02;5.32;;;5.60;99.90;;;;;;4983785;28;20043;-78
2023/01/10 06:32:11;;;;;;;41.67;6.20;;;5.60;99.90;;;;;;4976022;28;20049;-78
2023/01/10 06:34:37;;;;;;;31.88;6.35;;;5.50;99.90;;;;;;5003078;28;20506;-79
2023/01/10 06:37:03;;;;;;;43.65;7.72;;;5.40;99.90;;;;;;4982812;28;20392;-79
2023/01/10 06:39:28;;;;;;;37.40;6.07;;;5.30;99.90;;;;;;4957089;28;20125;-79
2023/01/10 06:41:54;;;;;;;35.25;7.03;;;5.20;99.90;;;;;;4958035;28;20759;-86
2023/01/10 06:44:19;;;;;;;33.92;5.20;;;5.10;99.90;;;;;;4973732;28;20460;-79
2023/01/10 06:46:45;;;;;;;25.83;6.97;;;5.00;99.90;;;;;;4979952;28;20107;-79
2023/01/10 06:49:11;;;;;;;27.35;6.10;;;5.00;99.90;;;;;;4990398;28;20042;-79
2023/01/10 06:51:37;;;;;;;33.50;6.80;;;4.90;99.90;;;;;;4994504;28;21004;-77
2023/01/10 06:54:02;;;;;;;33.17;5.95;;;4.90;99.90;;;;;;4996089;28;20045;-79
2023/01/10 06:56:28;;;;;;;28.73;5.43;;;4.90;99.90;;;;;;4993904;28;22002;-77
2023/01/10 06:58:54;;;;;;;27.38;5.93;;;4.90;99.90;;;;;;4999688;28;20508;-77
2023/01/10 07:01:20;;;;;;;25.45;6.00;;;4.90;99.90;;;;;;4978320;28;20042;-78
2023/01/10 07:03:47;;;;;;;44.50;9.30;;;4.90;99.90;;;;;;4974806;28;20060;-79
2023/01/10 07:06:13;;;;;;;31.23;6.18;;;5.00;99.90;;;;;;4994864;28;20452;-78
2023/01/10 07:08:41;;;;;;;23.27;6.60;;;5.10;99.90;;;;;;4976917;28;20070;-78
2023/01/10 07:11:10;;;;;;;43.92;8.15;;;5.10;99.90;;;;;;4989709;28;20089;-79
2023/01/10 07:13:36;;;;;;;34.70;7.65;;;5.20;99.90;;;;;;4977038;28;20129;-78
2023/01/10 07:16:07;;;;;;;38.78;8.77;;;5.30;99.90;;;;;;4970887;28;20078;-80
2023/01/10 07:18:37;;;;;;;38.60;9.38;;;5.40;99.90;;;;;;4977088;28;20054;-79
2023/01/10 07:21:04;;;;;;;42.08;10.40;;;5.40;99.90;;;;;;4992104;28;20050;-79
2023/01/10 07:23:30;;;;;;;41.67;9.68;;;5.50;99.90;;;;;;4981427;28;20138;-78
2023/01/10 07:25:56;;;;;;;35.10;8.98;;;5.50;99.90;;;;;;4977764;28;20054;-79
2023/01/10 07:28:22;;;;;;;44.63;8.43;;;5.50;99.90;;;;;;4996173;28;20085;-79
2023/01/10 07:30:48;;;;;;;41.47;8.95;;;5.60;99.90;;;;;;4974505;28;20077;-78
2023/01/10 07:33:14;;;;;;;37.90;8.95;;;5.60;99.90;;;;;;4954927;28;20115;-78
2023/01/10 07:35:40;;;;;;;37.72;9.15;;;5.60;99.90;;;;;;4960236;28;20049;-79
2023/01/10 07:38:05;;;;;;;49.80;9.55;;;5.60;99.90;;;;;;4981717;28;20103;-79
2023/01/10 07:40:31;;;;;;;40.67;8.80;;;5.60;99.90;;;;;;4997357;28;20467;-79
2023/01/10 07:42:58;;;;;;;39.03;9.35;;;5.60;99.90;;;;;;4975746;28;20141;-79
2023/01/10 07:45:25;;;;;;;37.80;10.10;;;5.60;99.90;;;;;;4977651;28;20093;-79
2023/01/10 07:47:56;;;;;;;34.95;8.15;;;5.50;99.90;;;;;;4976001;28;20050;-80
2023/01/10 07:50:21;;;;;;;43.55;9.43;;;5.50;99.90;;;;;;4977579;28;20080;-79
2023/01/10 07:52:47;;;;;;;49.33;9.70;;;5.50;99.90;;;;;;4996102;28;20495;-79
2023/01/10 07:55:13;;;;;;;46.80;9.38;;;5.60;99.90;;;;;;4978590;28;20057;-79
2023/01/10 07:57:39;;;;;;;39.75;9.50;;;5.60;99.90;;;;;;4968669;28;20046;-79
2023/01/10 08:00:05;;;;;;;29.95;7.85;;;5.60;99.90;;;;;;4961107;28;20039;-85
2023/01/10 08:02:31;;;;;;;51.53;10.25;;;5.60;99.90;;;;;;4971644;28;20054;-80
2023/01/10 08:04:57;;;;;;;41.20;8.27;;;5.60;99.90;;;;;;4993109;28;20137;-79
2023/01/10 08:07:22;;;;;;;32.72;7.93;;;5.60;99.90;;;;;;4987606;28;20045;-79
2023/01/10 08:09:48;;;;;;;36.22;8.48;;;5.60;99.90;;;;;;4980896;28;20074;-78
2023/01/10 08:12:13;;;;;;;37.05;8.50;;;5.60;99.90;;;;;;4940992;28;20050;-79
2023/01/10 08:14:39;;;;;;;43.45;8.52;;;5.60;99.90;;;;;;4960683;28;20383;-79
2023/01/10 08:17:05;;;;;;;41.30;7.55;;;5.60;99.90;;;;;;4979759;28;20033;-81
2023/01/10 08:19:30;;;;;;;37.83;7.25;;;5.60;99.90;;;;;;4962669;28;20078;-79
2023/01/10 08:21:56;;;;;;;34.67;8.60;;;5.50;99.90;;;;;;4979393;28;20052;-79
2023/01/10 08:24:22;;;;;;;34.17;6.93;;;5.40;99.90;;;;;;4966418;28;20551;-79
2023/01/10 08:26:47;;;;;;;36.65;6.82;;;5.50;99.90;;;;;;4979772;28;20176;-79
2023/01/10 08:29:14;;;;;;;34.10;8.07;;;5.50;99.90;;;;;;4995360;28;20049;-79
2023/01/10 08:31:40;;;;;;;36.70;6.18;;;5.50;99.90;;;;;;4979564;28;20046;-78
2023/01/10 08:34:06;;;;;;;35.70;6.80;;;5.50;99.90;;;;;;4979092;28;20088;-79
2023/01/10 08:36:32;;;;;;;50.33;9.70;;;5.60;99.90;;;;;;4978999;28;20172;-79
2023/01/10 08:38:57;;;;;;;33.10;6.90;;;5.70;99.90;;;;;;4978859;28;20057;-79
2023/01/10 08:41:23;;;;;;;26.05;6.22;;;5.70;99.90;;;;;;4975749;28;20129;-79
2023/01/10 08:43:49;;;;;;;36.85;6.43;;;5.70;99.90;;;;;;4959559;28;20049;-79
2023/01/10 08:46:16;;;;;;;29.65;6.50;;;5.80;99.90;;;;;;4986800;28;20050;-79
2023/01/10 08:48:42;;;;;;;27.90;5.78;;;5.80;99.90;;;;;;4973267;28;20124;-80
2023/01/10 08:51:08;;;;;;;39.55;8.07;;;5.90;99.90;;;;;;4971783;28;20077;-79
2023/01/10 08:53:34;;;;;;;38.25;7.78;;;5.90;99.90;;;;;;4994364;28;20052;-79
2023/01/10 08:56:00;;;;;;;35.60;7.88;;;5.90;99.90;;;;;;4978438;28;20550;-79
2023/01/10 08:58:26;;;;;;;40.97;8.50;;;5.90;99.90;;;;;;5006358;28;20061;-78
2023/01/10 09:00:52;;;;;;;32.70;6.95;;;5.80;99.90;;;;;;4995270;28;20042;-79
2023/01/10 09:03:18;;;;;;;29.23;7.13;;;5.80;99.90;;;;;;4983796;28;20050;-79
2023/01/10 09:05:43;;;;;;;34.53;8.60;;;5.70;99.90;;;;;;4959599;28;20054;-79
2023/01/10 09:08:09;;;;;;;31.60;6.13;;;5.60;99.90;;;;;;4989975;28;20046;-79
2023/01/10 09:10:35;;;;;;;33.28;6.63;;;5.60;99.90;;;;;;4978085;28;20049;-80
2023/01/10 09:13:03;;;;;;;29.83;6.32;;;5.60;99.90;;;;;;4977240;28;20041;-82
2023/01/10 09:15:33;;;;;;;26.45;6.00;;;5.60;99.90;;;;;;4978261;28;20380;-79
2023/01/10 09:18:04;;;;;;;31.38;7.15;;;5.60;99.90;;;;;;4991220;28;20034;-78
2023/01/10 09:20:32;;;;;;;19.60;5.45;;;5.80;99.90;;;;;;4974745;28;20042;-80
2023/01/10 09:22:58;;;;;;;23.70;5.32;;;5.80;99.90;;;;;;4991677;28;20399;-79
2023/01/10 09:25:24;;;;;;;26.45;5.80;;;5.90;99.90;;;;;;4994518;28;20731;-79
2023/01/10 09:28:00;;;;;;;27.95;4.70;;;5.90;99.90;;;;;;4992729;28;20037;-79
2023/01/10 09:30:26;;;;;;;;;;;6.00;99.90;;;;;;4962654;28;20046;-79
2023/01/10 09:32:53;;;;;;;27.88;5.28;;;6.00;99.90;;;;;;4975099;28;20256;-79
2023/01/10 09:35:18;;;;;;;31.75;5.10;;;6.10;99.90;;;;;;4987117;28;20054;-81
2023/01/10 09:37:44;;;;;;;34.83;5.30;;;6.10;99.90;;;;;;4994072;28;20381;-79
2023/01/10 09:40:19;;;;;;;37.50;6.40;;;6.00;99.90;;;;;;4977647;28;20049;-82
2023/01/10 09:43:03;;;;;;;27.88;5.20;;;6.10;99.90;;;;;;4984162;28;20058;-79
2023/01/10 09:45:53;;;;;;;28.95;5.25;;;6.20;99.90;;;;;;4976548;28;20104;-78
2023/01/10 09:48:44;;;;;;;32.97;6.10;;;6.20;99.90;;;;;;4975145;28;20066;-84
2023/01/10 09:51:31;;;;;;;28.83;6.05;;;6.10;99.90;;;;;;4984729;28;20101;-80
2023/01/10 09:53:59;;;;;;;30.10;5.07;;;6.20;99.90;;;;;;4994663;28;20403;-79
2023/01/10 09:56:26;;;;;;;25.88;5.03;;;6.20;99.90;;;;;;4981467;28;20423;-79
2023/01/10 09:58:52;;;;;;;36.55;6.78;;;6.30;99.90;;;;;;4997585;28;20046;-78
2023/01/10 10:01:22;;;;;;;28.02;4.80;;;6.30;99.90;;;;;;4965743;28;20108;-78
2023/01/10 10:04:04;;;;;;;32.28;6.43;;;6.30;99.90;;;;;;5005120;28;20088;-77
2023/01/10 10:06:33;;;;;;;23.63;4.85;;;6.20;99.90;;;;;;4997320;28;20056;-79
2023/01/10 10:08:59;;;;;;;27.92;6.07;;;6.20;99.90;;;;;;4977042;28;20050;-79
2023/01/10 10:11:25;;;;;;;26.23;5.75;;;6.20;99.90;;;;;;4995301;28;20097;-79
2023/01/10 10:14:11;;;;;;;33.80;5.78;;;6.20;99.90;;;;;;4998288;28;20598;-78
2023/01/10 10:16:48;;;;;;;32.80;5.68;;;6.30;99.90;;;;;;4997807;28;20045;-79
2023/01/10 10:19:40;;;;;;;36.15;6.30;;;6.30;99.90;;;;;;4997797;28;20041;-79
2023/01/10 10:22:15;;;;;;;30.60;6.28;;;6.40;99.90;;;;;;4998161;28;20065;-79
2023/01/10 10:25:11;;;;;;;30.87;5.90;;;6.50;99.90;;;;;;4974411;28;20050;-79
2023/01/10 10:27:48;;;;;;;30.95;6.18;;;6.60;99.90;;;;;;4994901;28;20053;-79
2023/01/10 10:30:17;;;;;;;27.63;6.05;;;6.70;99.90;;;;;;5003174;28;20057;-79
2023/01/10 10:33:10;;;;;;;29.67;5.57;;;6.70;99.90;;;;;;4965613;28;20643;-79
2023/01/10 10:35:44;;;;;;;30.02;5.00;;;6.70;99.90;;;;;;4975936;28;20074;-79
2023/01/10 10:38:25;;;;;;;31.40;5.78;;;6.70;99.90;;;;;;4990370;28;20442;-79
2023/01/10 10:40:53;;;;;;;33.67;6.82;;;6.60;99.90;;;;;;4997432;28;20077;-82
2023/01/10 10:43:24;;;;;;;30.33;7.82;;;6.70;99.90;;;;;;4978579;28;20045;-78
2023/01/10 10:46:00;;;;;;;32.92;8.10;;;6.70;99.90;;;;;;4980934;28;20104;-79
2023/01/10 10:48:59;;;;;;;37.93;8.60;;;6.70;99.90;;;;;;4996046;28;20100;-86
2023/01/10 10:51:35;;;;;;;37.67;11.05;;;6.70;99.90;;;;;;4976858;28;20065;-86
2023/01/10 10:54:02;;;;;;;34.15;8.70;;;6.70;99.90;;;;;;4986743;28;20133;-81
2023/01/10 10:56:28;;;;;;;35.20;9.32;;;6.70;99.90;;;;;;4979655;28;20062;-87
2023/01/10 10:58:57;;;;;;;32.72;8.93;;;6.70;99.90;;;;;;4997340;28;20056;-78
2023/01/10 11:01:23;;;;;;;37.28;9.65;;;6.80;99.90;;;;;;4993364;28;20388;-78
2023/01/10 11:03:54;;;;;;;38.58;9.90;;;6.80;99.90;;;;;;4979863;28;20038;-79
2023/01/10 11:06:23;;;;;;;27.48;10.40;;;6.80;99.90;;;;;;4975788;28;20399;-80
2023/01/10 11:08:52;;;;;;;34.33;11.07;;;6.90;99.90;;;;;;4996099;28;20042;-79
2023/01/10 11:11:28;;;;;;;32.65;11.52;;;6.90;99.90;;;;;;4997007;28;20058;-79
2023/01/10 11:13:58;;;;;;;;;;;6.80;99.90;;;;;;4980061;28;20137;-84
2023/01/10 11:16:40;;;;;;;35.17;11.77;;;6.80;99.90;;;;;;4980586;28;20400;-79
2023/01/10 11:19:17;;;;;;;37.28;12.20;;;6.80;99.90;;;;;;4979828;28;20089;-80
2023/01/10 11:22:05;;;;;;;35.72;11.85;;;6.80;99.90;;;;;;4985069;28;20475;-79
2023/01/10 11:24:43;;;;;;;33.45;12.40;;;6.80;99.90;;;;;;4994675;28;20091;-83
2023/01/10 11:27:25;;;;;;;36.25;12.10;;;6.80;99.90;;;;;;4993518;28;20071;-80
2023/01/10 11:29:56;;;;;;;38.13;11.80;;;6.80;99.90;;;;;;4995330;28;20046;-79
2023/01/10 11:32:32;;;;;;;42.03;13.65;;;6.80;99.90;;;;;;4996389;28;20046;-80
2023/01/10 11:35:16;;;;;;;37.03;11.80;;;6.80;99.90;;;;;;4996523;28;20407;-79
2023/01/10 11:37:42;;;;;;;30.73;10.45;;;6.80;99.90;;;;;;4985095;28;20124;-80
2023/01/10 11:40:24;;;;;;;32.38;11.50;;;6.70;99.90;;;;;;4979709;28;20502;-79
2023/01/10 11:42:55;;;;;;;32.22;10.32;;;6.70;99.90;;;;;;4978549;28;20065;-81
2023/01/10 11:45:28;;;;;;;33.67;10.48;;;6.80;99.90;;;;;;4995205;28;20364;-79
2023/01/10 11:48:19;;;;;;;32.55;9.77;;;6.80;99.90;;;;;;4979706;28;20129;-79
2023/01/10 11:50:49;;;;;;;28.80;9.32;;;6.80;99.90;;;;;;5002108;28;20058;-81
2023/01/10 11:53:41;;;;;;;26.30;9.07;;;6.80;99.90;;;;;;4976940;28;20050;-80
2023/01/10 11:56:21;;;;;;;25.70;7.03;;;6.70;99.90;;;;;;4971044;28;20131;-82
2023/01/10 11:58:46;;;;;;;36.83;8.45;;;6.70;99.90;;;;;;4985495;28;20042;-80
2023/01/10 12:01:27;;;;;;;43.47;8.65;;;6.70;99.90;;;;;;4977413;28;20049;-80
2023/01/10 12:03:52;;;;;;;32.10;8.00;;;6.70;99.90;;;;;;4995382;28;20049;-80
2023/01/10 12:06:19;;;;;;;29.63;7.20;;;6.70;99.90;;;;;;4995255;28;20507;-80
2023/01/10 12:08:45;;;;;;;31.50;7.35;;;6.80;99.90;;;;;;4967115;28;20049;-80
2023/01/10 12:11:17;;;;;;;29.88;6.88;;;6.80;99.90;;;;;;4979280;28;20581;-82
2023/01/10 12:13:51;;;;;;;30.23;5.82;;;6.80;99.90;;;;;;4977356;28;20073;-80
2023/01/10 12:16:18;;;;;;;28.75;6.97;;;6.80;99.90;;;;;;4993357;28;20532;-80
2023/01/10 12:18:45;;;;;;;26.73;5.75;;;6.80;99.90;;;;;;4995560;28;20053;-81
2023/01/10 12:21:14;;;;;;;26.17;6.53;;;6.80;99.90;;;;;;4979237;28;20495;-81
2023/01/10 12:23:43;;;;;;;38.35;7.25;;;6.80;99.90;;;;;;4995318;28;20518;-84
2023/01/10 12:26:12;;;;;;;28.25;7.07;;;6.80;99.90;;;;;;4990658;28;20142;-78
2023/01/10 12:28:51;;;;;;;34.00;6.38;;;6.80;99.90;;;;;;4988091;28;20399;-86
2023/01/10 12:31:18;;;;;;;32.55;6.47;;;6.80;99.90;;;;;;5000524;28;20061;-79
2023/01/10 12:33:55;;;;;;;30.23;7.15;;;6.80;99.90;;;;;;4981867;28;20049;-83
2023/01/10 12:36:33;;;;;;;25.40;6.47;;;6.80;99.90;;;;;;4994203;28;20395;-79
2023/01/10 12:39:22;;;;;;;31.85;6.53;;;6.80;99.90;;;;;;4977353;28;20041;-79
2023/01/10 12:45:03;;;;;;;24.70;5.85;;;6.80;99.90;;;;;;4995100;28;20399;-81
2023/01/10 12:47:55;;;;;;;29.85;5.90;;;6.70;99.90;;;;;;4983229;28;20060;-80
2023/01/10 12:50:24;;;;;;;33.80;5.97;;;6.70;99.90;;;;;;4977997;28;20081;-82
2023/01/10 12:53:08;;;;;;;34.30;6.97;;;6.80;99.90;;;;;;4994754;28;20054;-79
2023/01/10 12:55:40;;;;;;;30.58;6.40;;;6.80;99.90;;;;;;4975944;28;20054;-79
2023/01/10 12:58:20;;;;;;;34.75;6.88;;;6.70;99.90;;;;;;4988996;28;20193;-79
2023/01/10 13:00:57;;;;;;;28.65;5.15;;;6.70;99.90;;;;;;4978665;28;20108;-79
2023/01/10 13:03:27;;;;;;;23.60;5.53;;;6.70;99.90;;;;;;4991592;28;20048;-79
2023/01/10 13:05:55;;;;;;;31.33;6.72;;;6.60;99.90;;;;;;4995128;28;20046;-79
2023/01/10 13:08:24;;;;;;;33.10;7.00;;;6.70;99.90;;;;;;4975243;28;20054;-79
2023/01/10 13:10:53;;;;;;;37.63;7.60;;;6.70;99.90;;;;;;4972496;28;20044;-79
2023/01/10 13:13:28;;;;;;;32.25;7.50;;;6.70;99.90;;;;;;4991896;28;20042;-79
2023/01/10 13:16:34;;;;;;;25.38;6.32;;;6.60;99.90;;;;;;4991525;28;20715;-79
2023/01/10 13:19:22;;;;;;;26.33;5.90;;;6.60;99.90;;;;;;4972886;28;20088;-80